createdAt,value
2019-05-26T00:04:40.552Z,9.3
2019-05-26T00:09:40.386Z,9.3
2019-05-26T00:14:39.990Z,9.1
2019-05-26T00:19:39.686Z,9.1
2019-05-26T00:24:39.298Z,9
2019-05-26T00:29:39.074Z,9.1
2019-05-26T00:34:38.804Z,9.1
2019-05-26T00:39:38.412Z,9.3
2019-05-26T00:44:38.347Z,8.7
2019-05-26T00:49:38.072Z,9.1
2019-05-26T00:54:37.880Z,9.1
2019-05-26T00:59:37.569Z,8.7
2019-05-26T01:04:37.041Z,8.6
2019-05-26T01:09:36.571Z,8.5
2019-05-26T01:14:36.182Z,8.5
2019-05-26T01:19:35.782Z,8.5
2019-05-26T01:24:35.561Z,8.6
2019-05-26T01:29:35.256Z,8.5
2019-05-26T01:34:34.777Z,8.4
2019-05-26T01:39:34.458Z,8.3
2019-05-26T01:44:34.128Z,8.2
2019-05-26T01:49:33.703Z,8.1
2019-05-26T01:54:33.605Z,8.3
2019-05-26T01:59:32.895Z,8
2019-05-26T02:04:32.539Z,8.1
2019-05-26T02:09:32.437Z,8.1
2019-05-26T02:14:32.045Z,8.1
2019-05-26T02:19:31.872Z,8.1
2019-05-26T02:24:31.502Z,7.9
2019-05-26T02:29:31.481Z,7.9
2019-05-26T02:34:31.232Z,7.9
2019-05-26T02:39:30.762Z,7.8
2019-05-26T02:44:30.506Z,7.9
2019-05-26T02:49:30.251Z,7.9
2019-05-26T02:54:30.027Z,7.9
2019-05-26T02:59:29.889Z,7.9
2019-05-26T03:04:29.608Z,7.8
2019-05-26T03:09:29.319Z,8
2019-05-26T03:14:29.420Z,8.1
2019-05-26T03:19:29.202Z,8.5
2019-05-26T03:24:30.172Z,10.5
2019-05-26T03:29:30.632Z,10.4
2019-05-26T03:34:31.048Z,12.3
2019-05-26T03:39:44.118Z,14.3
2019-05-26T03:44:44.787Z,15.2
2019-05-26T03:49:45.213Z,15.8
2019-05-26T03:54:45.427Z,16.8
2019-05-26T03:59:44.973Z,16.8
2019-05-26T04:04:44.759Z,16.9
2019-05-26T04:10:02.936Z,17.5
2019-05-26T04:15:03.159Z,16.8
2019-05-26T04:20:02.517Z,16.5
2019-05-26T04:25:01.848Z,16.3
2019-05-26T04:30:01.691Z,16.7
2019-05-26T04:35:01.303Z,17.2
2019-05-26T04:40:01.557Z,17.1
2019-05-26T04:45:01.232Z,16.9
2019-05-26T04:50:01.194Z,16.8
2019-05-26T04:55:01.000Z,17
2019-05-26T05:00:00.853Z,17.8
2019-05-26T05:05:00.111Z,17.1
2019-05-26T05:09:59.574Z,17.3
2019-05-26T05:14:59.556Z,17.1
2019-05-26T05:19:59.955Z,18.4
2019-05-26T05:25:00.350Z,18.5
2019-05-26T05:30:00.251Z,18.9
2019-05-26T05:34:59.791Z,18.9
2019-05-26T05:40:00.518Z,19.6
2019-05-26T05:44:59.536Z,18.2
2019-05-26T05:49:59.392Z,18.3
2019-05-26T05:54:59.206Z,17.8
2019-05-26T05:59:59.308Z,18.5
2019-05-26T06:04:58.764Z,18.5
2019-05-26T06:09:57.619Z,17.7
2019-05-26T06:14:56.970Z,18.3
2019-05-26T06:19:56.926Z,18
2019-05-26T06:24:57.260Z,18.6
2019-05-26T06:29:59.101Z,19.4
2019-05-26T06:34:59.646Z,20.1
2019-05-26T06:39:59.230Z,19.7
2019-05-26T06:44:58.274Z,19.1
2019-05-26T06:49:57.982Z,19.3
2019-05-26T06:54:57.464Z,18.8
2019-05-26T06:59:57.270Z,19.4
2019-05-26T07:04:57.776Z,20.1
2019-05-26T07:09:57.460Z,19.6
2019-05-26T07:14:57.311Z,20.1
2019-05-26T07:19:58.054Z,20.7
2019-05-26T07:24:58.297Z,20.9
2019-05-26T07:29:58.027Z,20.4
2019-05-26T07:34:57.930Z,20.9
2019-05-26T07:39:58.393Z,21.2
2019-05-26T07:44:57.848Z,21.3
2019-05-26T07:49:57.667Z,22.1
2019-05-26T07:54:57.203Z,21.5
2019-05-26T07:59:56.379Z,21.4
2019-05-26T08:04:56.444Z,21.7
2019-05-26T08:09:56.056Z,21.4
2019-05-26T08:14:55.633Z,21.7
2019-05-26T08:19:55.538Z,21.4
2019-05-26T08:24:55.990Z,22.6
2019-05-26T08:29:55.751Z,22.4
2019-05-26T08:34:55.860Z,22.8
2019-05-26T08:39:55.729Z,22.4
2019-05-26T08:44:55.760Z,23.1
2019-05-26T08:49:55.527Z,23.3
2019-05-26T08:54:55.797Z,23.4
2019-05-26T08:59:55.216Z,22.9
2019-05-26T09:04:55.117Z,23.3
2019-05-26T09:09:54.209Z,23.2
2019-05-26T09:14:55.028Z,24.3
2019-05-26T09:19:54.432Z,24.2
2019-05-26T09:24:53.635Z,23.8
2019-05-26T09:29:53.322Z,23.5
2019-05-26T09:34:53.242Z,24.1
2019-05-26T09:39:53.675Z,24.5
2019-05-26T09:44:53.261Z,24.7
2019-05-26T09:49:54.092Z,25.5
2019-05-26T09:54:57.241Z,25.1
2019-05-26T09:59:59.382Z,26
2019-05-26T10:04:58.950Z,24.9
2019-05-26T10:09:58.726Z,24.7
2019-05-26T10:14:58.792Z,24.8
2019-05-26T10:19:59.473Z,25.4
2019-05-26T10:24:59.256Z,25.3
2019-05-26T10:29:59.866Z,25.5
2019-05-26T10:35:00.574Z,26.4
2019-05-26T10:40:01.223Z,26.8
2019-05-26T10:45:00.670Z,25.9
2019-05-26T10:50:01.181Z,26.1
2019-05-26T10:55:01.777Z,26.2
2019-05-26T11:00:02.290Z,26.5
2019-05-26T11:05:02.560Z,26.4
2019-05-26T11:10:02.501Z,26.4
2019-05-26T11:15:02.309Z,26.6
2019-05-26T11:20:01.835Z,26
2019-05-26T11:25:01.511Z,26.4
2019-05-26T11:30:01.499Z,26.5
2019-05-26T11:35:02.337Z,26.6
2019-05-26T11:40:01.668Z,26.1
2019-05-26T11:45:00.979Z,26.2
2019-05-26T11:50:00.926Z,26.5
2019-05-26T11:55:01.075Z,26.8
2019-05-26T12:00:00.604Z,26.2
2019-05-26T12:05:00.438Z,26.7
2019-05-26T12:10:00.316Z,27
2019-05-26T12:14:59.955Z,26.9
2019-05-26T12:19:59.299Z,26.3
2019-05-26T12:24:59.470Z,26.5
2019-05-26T12:29:58.588Z,26.6
2019-05-26T12:34:58.572Z,26.3
2019-05-26T12:39:58.645Z,27.3
2019-05-26T12:44:59.111Z,27.6
2019-05-26T12:49:58.250Z,26.6
2019-05-26T12:54:57.356Z,25.8
2019-05-26T12:59:57.961Z,26.6
2019-05-26T13:04:58.069Z,26.8
2019-05-26T13:09:57.359Z,26.8
2019-05-26T13:15:05.271Z,26
2019-05-26T13:20:04.556Z,25.9
2019-05-26T13:25:04.553Z,26
2019-05-26T13:30:05.352Z,26
2019-05-26T13:35:05.926Z,26.3
2019-05-26T13:40:05.985Z,26.5
2019-05-26T13:45:20.993Z,25.9
2019-05-26T13:50:20.069Z,26
2019-05-26T13:55:20.036Z,26
2019-05-26T14:00:19.464Z,25.4
2019-05-26T14:05:18.829Z,25.2
2019-05-26T14:10:18.348Z,25.3
2019-05-26T14:15:17.985Z,25
2019-05-26T14:20:17.865Z,25.5
2019-05-26T14:25:18.487Z,25.8
2019-05-26T14:30:18.513Z,25.6
2019-05-26T14:35:17.695Z,25.1
2019-05-26T14:40:16.636Z,25
2019-05-26T14:45:17.044Z,24.6
2019-05-26T14:50:17.715Z,24.4
2019-05-26T14:55:17.100Z,24.2
2019-05-26T15:00:16.456Z,24.1
2019-05-26T15:05:16.165Z,24.2
2019-05-26T15:10:16.153Z,24.3
2019-05-26T15:15:15.748Z,24.1
2019-05-26T15:20:15.549Z,24.1
2019-05-26T15:25:15.489Z,24.2
2019-05-26T15:30:15.316Z,24.5
2019-05-26T15:35:14.531Z,24.2
2019-05-26T15:40:13.866Z,23.8
2019-05-26T15:45:13.216Z,23.5
2019-05-26T15:50:13.663Z,23
2019-05-26T15:55:12.785Z,22.9
2019-05-26T16:00:12.611Z,22.9
2019-05-26T16:05:11.990Z,23.1
2019-05-26T16:10:12.125Z,23.5
2019-05-26T16:15:11.801Z,23.3
2019-05-26T16:20:11.445Z,23
2019-05-26T16:25:11.160Z,23
2019-05-26T16:30:10.669Z,22.5
2019-05-26T16:35:09.825Z,22.3
2019-05-26T16:40:09.504Z,22.3
2019-05-26T16:45:09.029Z,22
2019-05-26T16:50:08.291Z,21.4
2019-05-26T16:55:07.835Z,21.4
2019-05-26T17:00:07.477Z,21.3
2019-05-26T17:05:07.310Z,20.9
2019-05-26T17:10:07.037Z,20.9
2019-05-26T17:15:06.590Z,20.6
2019-05-26T17:20:06.543Z,20.6
2019-05-26T17:25:06.040Z,20.4
2019-05-26T17:30:05.513Z,20.1
2019-05-26T17:35:05.199Z,20.1
2019-05-26T17:40:05.786Z,20
2019-05-26T17:45:05.838Z,19.8
2019-05-26T17:50:05.240Z,19.8
2019-05-26T17:55:04.720Z,19.1
2019-05-26T18:00:04.182Z,19
2019-05-26T18:05:03.630Z,18.7
2019-05-26T18:10:03.227Z,18.6
2019-05-26T18:15:02.898Z,18.8
2019-05-26T18:20:02.739Z,19
2019-05-26T18:25:02.641Z,19.2
2019-05-26T18:30:02.299Z,19.3
2019-05-26T18:35:02.017Z,19.2
2019-05-26T18:40:01.978Z,19.3
2019-05-26T18:45:01.691Z,19.2
2019-05-26T18:50:01.722Z,18.9
2019-05-26T18:55:01.821Z,19.1
2019-05-26T19:00:01.629Z,19.4
2019-05-26T19:05:01.443Z,19.4
2019-05-26T19:10:01.367Z,19.6
2019-05-26T19:15:01.609Z,19.6
2019-05-26T19:20:15.272Z,19.5
2019-05-26T19:25:14.482Z,19.5
2019-05-26T19:30:14.269Z,19.6
2019-05-26T19:35:14.097Z,19.4
2019-05-26T19:40:13.782Z,19.2
2019-05-26T19:45:13.644Z,19.2
2019-05-26T19:50:13.473Z,19.3
2019-05-26T19:55:13.094Z,19.1
2019-05-26T20:00:12.634Z,18.7
2019-05-26T20:05:12.165Z,18.4
2019-05-26T20:10:11.657Z,18.3
2019-05-26T20:15:11.195Z,18
2019-05-26T20:20:10.911Z,18.1
2019-05-26T20:25:10.590Z,18.1
2019-05-26T20:30:10.196Z,18.1
2019-05-26T20:35:09.721Z,18.1
2019-05-26T20:40:09.377Z,18.2
2019-05-26T20:45:09.224Z,18.3
2019-05-26T20:50:08.732Z,18.3
2019-05-26T20:55:08.360Z,18.1
2019-05-26T21:00:08.290Z,18
2019-05-26T21:05:08.791Z,17.9
2019-05-26T21:10:08.393Z,17.7
2019-05-26T21:15:08.100Z,17.9
2019-05-26T21:20:07.841Z,17.7
2019-05-26T21:25:07.392Z,17.7
2019-05-26T21:30:06.930Z,17.4
2019-05-26T21:35:06.682Z,17.5
2019-05-26T21:40:06.207Z,17.4
2019-05-26T21:45:05.848Z,17.2
2019-05-26T21:50:05.603Z,17
2019-05-26T21:55:05.406Z,17.3
2019-05-26T22:00:05.197Z,17.6
2019-05-26T22:05:04.935Z,17.3
2019-05-26T22:10:04.475Z,16.7
2019-05-26T22:15:03.986Z,16.3
2019-05-26T22:20:03.419Z,15.9
2019-05-26T22:25:03.193Z,16.2
2019-05-26T22:30:02.912Z,16
2019-05-26T22:35:02.390Z,15.7
2019-05-26T22:40:01.778Z,15.4
2019-05-26T22:45:01.326Z,15.2
2019-05-26T22:50:00.893Z,15.1
2019-05-26T22:55:00.614Z,15.1
2019-05-26T23:00:00.208Z,14.6
2019-05-26T23:05:00.138Z,15.1
2019-05-26T23:10:02.706Z,15.3
2019-05-26T23:15:02.373Z,15.4
2019-05-26T23:20:02.098Z,15.8
2019-05-26T23:25:02.223Z,15.9
2019-05-26T23:30:02.086Z,16.1
2019-05-26T23:35:02.124Z,16.4
2019-05-26T23:40:01.783Z,16.3
2019-05-26T23:45:01.565Z,16.5
2019-05-26T23:50:01.165Z,16.1
2019-05-26T23:55:00.628Z,15.7
2019-05-26T23:59:59.871Z,15.3
